sensor_id;sensor_type;location;lat;lon;timestamp;temperature;humidity
71237;DHT22;58984;51.960;5.582;2023-01-30T00:00:50;11.10;56.60
71237;DHT22;58984;51.960;5.582;2023-01-30T00:03:16;11.10;56.70
71237;DHT22;58984;51.960;5.582;2023-01-30T00:05:42;11.10;56.60
71237;DHT22;58984;51.960;5.582;2023-01-30T00:08:07;11.20;56.60
71237;DHT22;58984;51.960;5.582;2023-01-30T00:10:33;11.10;56.60
71237;DHT22;58984;51.960;5.582;2023-01-30T00:12:58;11.20;56.90
71237;DHT22;58984;51.960;5.582;2023-01-30T00:15:24;11.20;56.90
71237;DHT22;58984;51.960;5.582;2023-01-30T00:17:49;11.20;56.90
71237;DHT22;58984;51.960;5.582;2023-01-30T00:20:15;11.20;56.90
71237;DHT22;58984;51.960;5.582;2023-01-30T00:22:41;11.20;56.90
71237;DHT22;58984;51.960;5.582;2023-01-30T00:25:06;11.20;56.90
71237;DHT22;58984;51.960;5.582;2023-01-30T00:27:32;11.20;56.90
71237;DHT22;58984;51.960;5.582;2023-01-30T00:29:57;11.20;56.90
71237;DHT22;58984;51.960;5.582;2023-01-30T00:32:23;11.20;56.90
71237;DHT22;58984;51.960;5.582;2023-01-30T00:34:50;11.20;56.90
71237;DHT22;58984;51.960;5.582;2023-01-30T00:37:16;11.20;56.90
71237;DHT22;58984;51.960;5.582;2023-01-30T00:39:42;11.20;56.90
71237;DHT22;58984;51.960;5.582;2023-01-30T00:42:08;11.30;57.00
71237;DHT22;58984;51.960;5.582;2023-01-30T00:44:52;11.20;56.90
71237;DHT22;58984;51.960;5.582;2023-01-30T00:47:36;11.20;56.90
71237;DHT22;58984;51.960;5.582;2023-01-30T00:50:02;11.20;56.90
71237;DHT22;58984;51.960;5.582;2023-01-30T00:52:28;11.20;56.90
71237;DHT22;58984;51.960;5.582;2023-01-30T00:54:53;11.20;57.00
71237;DHT22;58984;51.960;5.582;2023-01-30T00:57:19;11.20;57.10
71237;DHT22;58984;51.960;5.582;2023-01-30T00:59:44;11.30;57.10
71237;DHT22;58984;51.960;5.582;2023-01-30T01:02:10;11.30;57.10
71237;DHT22;58984;51.960;5.582;2023-01-30T01:04:35;11.30;57.20
71237;DHT22;58984;51.960;5.582;2023-01-30T01:07:11;11.30;57.30
71237;DHT22;58984;51.960;5.582;2023-01-30T01:09:37;11.30;57.20
71237;DHT22;58984;51.960;5.582;2023-01-30T01:12:03;11.30;57.20
71237;DHT22;58984;51.960;5.582;2023-01-30T01:14:28;11.30;57.20
71237;DHT22;58984;51.960;5.582;2023-01-30T01:16:54;11.30;57.20
71237;DHT22;58984;51.960;5.582;2023-01-30T01:19:19;11.30;57.10
71237;DHT22;58984;51.960;5.582;2023-01-30T01:21:45;11.30;57.10
71237;DHT22;58984;51.960;5.582;2023-01-30T01:24:12;11.30;57.10
71237;DHT22;58984;51.960;5.582;2023-01-30T01:26:38;11.30;57.30
71237;DHT22;58984;51.960;5.582;2023-01-30T01:29:04;11.30;57.20
71237;DHT22;58984;51.960;5.582;2023-01-30T01:31:30;11.30;57.20
71237;DHT22;58984;51.960;5.582;2023-01-30T01:33:55;11.30;57.30
71237;DHT22;58984;51.960;5.582;2023-01-30T01:36:21;11.40;57.40
71237;DHT22;58984;51.960;5.582;2023-01-30T01:38:47;11.40;57.40
71237;DHT22;58984;51.960;5.582;2023-01-30T01:41:14;11.40;57.30
71237;DHT22;58984;51.960;5.582;2023-01-30T01:46:50;11.30;57.40
71237;DHT22;58984;51.960;5.582;2023-01-30T01:49:23;11.40;57.50
71237;DHT22;58984;51.960;5.582;2023-01-30T01:52:10;11.40;57.50
71237;DHT22;58984;51.960;5.582;2023-01-30T01:54:58;11.40;57.50
71237;DHT22;58984;51.960;5.582;2023-01-30T01:57:33;11.40;57.60
71237;DHT22;58984;51.960;5.582;2023-01-30T02:00:05;11.40;57.60
71237;DHT22;58984;51.960;5.582;2023-01-30T02:02:34;11.40;57.60
71237;DHT22;58984;51.960;5.582;2023-01-30T02:05:00;11.50;57.70
71237;DHT22;58984;51.960;5.582;2023-01-30T02:07:49;11.50;57.80
71237;DHT22;58984;51.960;5.582;2023-01-30T02:10:22;11.40;57.80
71237;DHT22;58984;51.960;5.582;2023-01-30T02:12:50;11.50;57.90
71237;DHT22;58984;51.960;5.582;2023-01-30T02:15:17;11.50;57.90
71237;DHT22;58984;51.960;5.582;2023-01-30T02:17:42;11.50;57.80
71237;DHT22;58984;51.960;5.582;2023-01-30T02:32:06;11.50;57.80
71237;DHT22;58984;51.960;5.582;2023-01-30T02:35:00;11.50;57.70
71237;DHT22;58984;51.960;5.582;2023-01-30T02:43:07;11.50;57.90
71237;DHT22;58984;51.960;5.582;2023-01-30T02:45:59;11.50;57.90
71237;DHT22;58984;51.960;5.582;2023-01-30T02:51:06;11.50;57.80
71237;DHT22;58984;51.960;5.582;2023-01-30T02:53:33;11.60;57.80
71237;DHT22;58984;51.960;5.582;2023-01-30T02:55:59;11.60;57.80
71237;DHT22;58984;51.960;5.582;2023-01-30T02:58:28;11.60;57.90
71237;DHT22;58984;51.960;5.582;2023-01-30T03:07:23;11.60;57.90
71237;DHT22;58984;51.960;5.582;2023-01-30T03:10:24;11.60;57.90
71237;DHT22;58984;51.960;5.582;2023-01-30T03:15:45;11.60;57.80
71237;DHT22;58984;51.960;5.582;2023-01-30T03:18:12;11.60;57.70
71237;DHT22;58984;51.960;5.582;2023-01-30T03:20:39;11.60;57.90
71237;DHT22;58984;51.960;5.582;2023-01-30T03:23:06;11.60;57.80
71237;DHT22;58984;51.960;5.582;2023-01-30T03:25:32;11.70;57.90
71237;DHT22;58984;51.960;5.582;2023-01-30T03:28:01;11.70;57.90
71237;DHT22;58984;51.960;5.582;2023-01-30T03:30:28;11.70;57.90
71237;DHT22;58984;51.960;5.582;2023-01-30T03:32:53;11.70;58.00
71237;DHT22;58984;51.960;5.582;2023-01-30T03:35:19;11.70;58.00
71237;DHT22;58984;51.960;5.582;2023-01-30T03:37:45;11.70;58.00
71237;DHT22;58984;51.960;5.582;2023-01-30T03:40:13;11.70;58.00
71237;DHT22;58984;51.960;5.582;2023-01-30T03:42:39;11.70;58.00
71237;DHT22;58984;51.960;5.582;2023-01-30T03:45:05;11.70;58.00
71237;DHT22;58984;51.960;5.582;2023-01-30T03:47:31;11.80;58.00
71237;DHT22;58984;51.960;5.582;2023-01-30T03:49:56;11.80;58.00
71237;DHT22;58984;51.960;5.582;2023-01-30T03:52:22;11.80;58.00
71237;DHT22;58984;51.960;5.582;2023-01-30T03:54:47;11.80;58.00
71237;DHT22;58984;51.960;5.582;2023-01-30T03:57:13;11.70;57.90
71237;DHT22;58984;51.960;5.582;2023-01-30T03:59:38;11.80;58.00
71237;DHT22;58984;51.960;5.582;2023-01-30T04:02:04;11.80;58.00
71237;DHT22;58984;51.960;5.582;2023-01-30T04:04:30;11.80;58.10
71237;DHT22;58984;51.960;5.582;2023-01-30T04:06:55;11.80;58.10
71237;DHT22;58984;51.960;5.582;2023-01-30T04:09:21;11.70;58.00
71237;DHT22;58984;51.960;5.582;2023-01-30T04:11:47;11.80;58.00
71237;DHT22;58984;51.960;5.582;2023-01-30T04:14:12;11.70;57.90
71237;DHT22;58984;51.960;5.582;2023-01-30T04:16:38;11.80;58.00
71237;DHT22;58984;51.960;5.582;2023-01-30T04:19:03;11.80;58.00
71237;DHT22;58984;51.960;5.582;2023-01-30T04:21:29;11.80;58.10
71237;DHT22;58984;51.960;5.582;2023-01-30T04:23:55;11.80;58.10
71237;DHT22;58984;51.960;5.582;2023-01-30T04:26:20;11.80;58.10
71237;DHT22;58984;51.960;5.582;2023-01-30T04:28:46;11.80;58.00
71237;DHT22;58984;51.960;5.582;2023-01-30T04:31:11;11.80;58.00
71237;DHT22;58984;51.960;5.582;2023-01-30T04:33:37;11.80;58.00
71237;DHT22;58984;51.960;5.582;2023-01-30T04:36:05;11.80;58.00
71237;DHT22;58984;51.960;5.582;2023-01-30T04:38:32;11.80;58.00
71237;DHT22;58984;51.960;5.582;2023-01-30T04:40:58;11.80;58.00
71237;DHT22;58984;51.960;5.582;2023-01-30T04:43:25;11.90;58.10
71237;DHT22;58984;51.960;5.582;2023-01-30T04:45:51;11.90;58.00
71237;DHT22;58984;51.960;5.582;2023-01-30T04:48:19;11.80;57.90
71237;DHT22;58984;51.960;5.582;2023-01-30T04:50:48;11.80;57.90
71237;DHT22;58984;51.960;5.582;2023-01-30T04:53:15;11.90;58.00
71237;DHT22;58984;51.960;5.582;2023-01-30T04:55:42;11.90;58.00
71237;DHT22;58984;51.960;5.582;2023-01-30T04:58:07;11.90;58.00
71237;DHT22;58984;51.960;5.582;2023-01-30T05:00:33;11.90;57.90
71237;DHT22;58984;51.960;5.582;2023-01-30T05:02:58;11.90;58.00
71237;DHT22;58984;51.960;5.582;2023-01-30T05:05:25;11.90;58.00
71237;DHT22;58984;51.960;5.582;2023-01-30T05:07:51;11.90;57.90
71237;DHT22;58984;51.960;5.582;2023-01-30T05:10:17;11.90;57.90
71237;DHT22;58984;51.960;5.582;2023-01-30T05:12:43;11.90;57.90
71237;DHT22;58984;51.960;5.582;2023-01-30T05:15:10;11.90;57.90
71237;DHT22;58984;51.960;5.582;2023-01-30T05:17:36;11.90;57.90
71237;DHT22;58984;51.960;5.582;2023-01-30T05:20:05;11.90;57.90
71237;DHT22;58984;51.960;5.582;2023-01-30T05:22:31;11.90;57.90
71237;DHT22;58984;51.960;5.582;2023-01-30T05:24:57;11.90;57.90
71237;DHT22;58984;51.960;5.582;2023-01-30T05:27:22;11.90;57.90
71237;DHT22;58984;51.960;5.582;2023-01-30T05:29:48;11.90;57.90
71237;DHT22;58984;51.960;5.582;2023-01-30T05:32:14;11.90;57.90
71237;DHT22;58984;51.960;5.582;2023-01-30T05:34:40;11.90;58.50
71237;DHT22;58984;51.960;5.582;2023-01-30T05:37:06;11.90;57.80
71237;DHT22;58984;51.960;5.582;2023-01-30T05:39:31;11.90;57.80
71237;DHT22;58984;51.960;5.582;2023-01-30T05:41:57;12.00;57.90
71237;DHT22;58984;51.960;5.582;2023-01-30T05:44:23;11.90;57.80
71237;DHT22;58984;51.960;5.582;2023-01-30T05:46:49;11.90;57.80
71237;DHT22;58984;51.960;5.582;2023-01-30T05:49:14;12.00;57.90
71237;DHT22;58984;51.960;5.582;2023-01-30T05:51:40;12.00;57.90
71237;DHT22;58984;51.960;5.582;2023-01-30T05:54:06;12.00;58.50
71237;DHT22;58984;51.960;5.582;2023-01-30T05:56:31;12.00;57.90
71237;DHT22;58984;51.960;5.582;2023-01-30T05:58:58;12.00;57.90
71237;DHT22;58984;51.960;5.582;2023-01-30T06:01:25;12.00;58.00
71237;DHT22;58984;51.960;5.582;2023-01-30T06:03:51;12.00;57.90
71237;DHT22;58984;51.960;5.582;2023-01-30T06:06:17;12.00;57.90
71237;DHT22;58984;51.960;5.582;2023-01-30T06:08:43;12.00;57.90
71237;DHT22;58984;51.960;5.582;2023-01-30T06:11:12;12.00;57.90
71237;DHT22;58984;51.960;5.582;2023-01-30T06:13:38;12.00;57.90
71237;DHT22;58984;51.960;5.582;2023-01-30T06:16:09;12.00;57.90
71237;DHT22;58984;51.960;5.582;2023-01-30T06:18:36;12.00;57.90
71237;DHT22;58984;51.960;5.582;2023-01-30T06:21:03;12.00;57.90
71237;DHT22;58984;51.960;5.582;2023-01-30T06:23:28;12.00;57.90
71237;DHT22;58984;51.960;5.582;2023-01-30T06:25:54;12.00;57.90
71237;DHT22;58984;51.960;5.582;2023-01-30T06:28:21;12.00;57.90
71237;DHT22;58984;51.960;5.582;2023-01-30T06:30:47;12.00;57.90
71237;DHT22;58984;51.960;5.582;2023-01-30T06:33:13;12.00;57.90
71237;DHT22;58984;51.960;5.582;2023-01-30T06:35:40;12.00;57.90
71237;DHT22;58984;51.960;5.582;2023-01-30T06:38:06;12.00;57.90
71237;DHT22;58984;51.960;5.582;2023-01-30T06:40:43;12.00;57.90
71237;DHT22;58984;51.960;5.582;2023-01-30T06:43:09;12.00;57.90
71237;DHT22;58984;51.960;5.582;2023-01-30T06:45:34;12.00;57.90
71237;DHT22;58984;51.960;5.582;2023-01-30T06:48:00;12.00;57.90
71237;DHT22;58984;51.960;5.582;2023-01-30T06:50:27;12.00;57.90
71237;DHT22;58984;51.960;5.582;2023-01-30T06:52:53;12.00;57.90
71237;DHT22;58984;51.960;5.582;2023-01-30T06:55:21;12.00;57.90
71237;DHT22;58984;51.960;5.582;2023-01-30T06:57:47;12.00;57.90
71237;DHT22;58984;51.960;5.582;2023-01-30T07:00:18;12.00;57.80
71237;DHT22;58984;51.960;5.582;2023-01-30T07:02:45;11.90;57.80
71237;DHT22;58984;51.960;5.582;2023-01-30T07:05:11;11.90;57.80
71237;DHT22;58984;51.960;5.582;2023-01-30T07:07:38;11.90;57.80
71237;DHT22;58984;51.960;5.582;2023-01-30T07:10:05;11.90;57.70
71237;DHT22;58984;51.960;5.582;2023-01-30T07:12:31;11.90;57.80
71237;DHT22;58984;51.960;5.582;2023-01-30T07:14:57;11.90;57.70
71237;DHT22;58984;51.960;5.582;2023-01-30T07:17:23;11.90;57.70
71237;DHT22;58984;51.960;5.582;2023-01-30T07:19:49;11.90;57.60
71237;DHT22;58984;51.960;5.582;2023-01-30T07:22:15;11.90;57.60
71237;DHT22;58984;51.960;5.582;2023-01-30T07:24:40;11.90;57.60
71237;DHT22;58984;51.960;5.582;2023-01-30T07:27:08;11.90;57.50
71237;DHT22;58984;51.960;5.582;2023-01-30T07:29:35;11.90;57.60
71237;DHT22;58984;51.960;5.582;2023-01-30T07:32:02;11.90;57.50
71237;DHT22;58984;51.960;5.582;2023-01-30T07:34:28;11.90;57.50
71237;DHT22;58984;51.960;5.582;2023-01-30T07:36:53;11.90;57.50
71237;DHT22;58984;51.960;5.582;2023-01-30T07:39:19;11.90;57.50
71237;DHT22;58984;51.960;5.582;2023-01-30T07:41:45;11.80;57.40
71237;DHT22;58984;51.960;5.582;2023-01-30T07:44:11;11.80;57.40
71237;DHT22;58984;51.960;5.582;2023-01-30T07:46:37;11.80;57.40
71237;DHT22;58984;51.960;5.582;2023-01-30T07:49:04;11.80;57.40
71237;DHT22;58984;51.960;5.582;2023-01-30T07:51:30;11.80;57.40
71237;DHT22;58984;51.960;5.582;2023-01-30T07:53:56;11.80;57.40
71237;DHT22;58984;51.960;5.582;2023-01-30T07:56:21;11.80;57.40
71237;DHT22;58984;51.960;5.582;2023-01-30T07:58:48;11.80;57.50
71237;DHT22;58984;51.960;5.582;2023-01-30T08:01:14;11.80;57.40
71237;DHT22;58984;51.960;5.582;2023-01-30T08:03:40;11.80;57.40
71237;DHT22;58984;51.960;5.582;2023-01-30T08:06:06;11.80;57.40
71237;DHT22;58984;51.960;5.582;2023-01-30T08:08:31;11.70;57.30
71237;DHT22;58984;51.960;5.582;2023-01-30T08:10:57;11.80;57.40
71237;DHT22;58984;51.960;5.582;2023-01-30T08:13:22;11.80;57.40
71237;DHT22;58984;51.960;5.582;2023-01-30T08:15:48;11.80;57.40
71237;DHT22;58984;51.960;5.582;2023-01-30T08:18:14;11.80;58.00
71237;DHT22;58984;51.960;5.582;2023-01-30T08:20:40;11.80;57.40
71237;DHT22;58984;51.960;5.582;2023-01-30T08:23:07;11.80;57.40
71237;DHT22;58984;51.960;5.582;2023-01-30T08:25:33;11.80;57.50
71237;DHT22;58984;51.960;5.582;2023-01-30T08:28:00;11.70;57.30
71237;DHT22;58984;51.960;5.582;2023-01-30T08:30:26;11.70;57.30
71237;DHT22;58984;51.960;5.582;2023-01-30T08:32:52;11.70;57.30
71237;DHT22;58984;51.960;5.582;2023-01-30T08:35:18;11.70;57.30
71237;DHT22;58984;51.960;5.582;2023-01-30T08:37:43;11.70;57.30
71237;DHT22;58984;51.960;5.582;2023-01-30T08:40:09;11.70;57.30
71237;DHT22;58984;51.960;5.582;2023-01-30T08:42:35;11.80;57.40
71237;DHT22;58984;51.960;5.582;2023-01-30T08:45:01;11.70;57.30
71237;DHT22;58984;51.960;5.582;2023-01-30T08:47:27;11.80;57.40
71237;DHT22;58984;51.960;5.582;2023-01-30T08:49:53;11.80;57.40
71237;DHT22;58984;51.960;5.582;2023-01-30T08:52:19;11.80;57.40
71237;DHT22;58984;51.960;5.582;2023-01-30T08:54:45;11.80;57.40
71237;DHT22;58984;51.960;5.582;2023-01-30T08:57:12;11.80;57.40
71237;DHT22;58984;51.960;5.582;2023-01-30T08:59:37;11.70;57.30
71237;DHT22;58984;51.960;5.582;2023-01-30T09:02:03;11.80;57.50
71237;DHT22;58984;51.960;5.582;2023-01-30T09:04:29;11.80;57.60
71237;DHT22;58984;51.960;5.582;2023-01-30T09:06:55;11.80;57.60
71237;DHT22;58984;51.960;5.582;2023-01-30T09:09:20;11.80;57.60
71237;DHT22;58984;51.960;5.582;2023-01-30T09:11:46;11.80;57.60
71237;DHT22;58984;51.960;5.582;2023-01-30T09:14:13;11.90;57.70
71237;DHT22;58984;51.960;5.582;2023-01-30T09:16:40;11.90;57.70
71237;DHT22;58984;51.960;5.582;2023-01-30T09:19:06;11.90;57.70
71237;DHT22;58984;51.960;5.582;2023-01-30T09:21:31;11.90;57.70
71237;DHT22;58984;51.960;5.582;2023-01-30T09:23:57;11.90;57.70
71237;DHT22;58984;51.960;5.582;2023-01-30T09:26:23;11.90;57.70
71237;DHT22;58984;51.960;5.582;2023-01-30T09:28:48;11.90;57.70
71237;DHT22;58984;51.960;5.582;2023-01-30T09:31:14;11.90;57.70
71237;DHT22;58984;51.960;5.582;2023-01-30T09:33:39;12.00;57.70
71237;DHT22;58984;51.960;5.582;2023-01-30T09:36:05;12.00;57.80
71237;DHT22;58984;51.960;5.582;2023-01-30T09:38:31;12.00;57.70
71237;DHT22;58984;51.960;5.582;2023-01-30T09:46:29;12.00;57.80
71237;DHT22;58984;51.960;5.582;2023-01-30T09:49:13;12.00;57.70
71237;DHT22;58984;51.960;5.582;2023-01-30T09:52:00;12.00;57.80
71237;DHT22;58984;51.960;5.582;2023-01-30T09:54:36;12.00;57.80
71237;DHT22;58984;51.960;5.582;2023-01-30T09:57:09;12.00;57.80
71237;DHT22;58984;51.960;5.582;2023-01-30T09:59:52;12.00;57.80
71237;DHT22;58984;51.960;5.582;2023-01-30T10:22:47;12.10;58.00
71237;DHT22;58984;51.960;5.582;2023-01-30T10:25:26;12.10;57.90
71237;DHT22;58984;51.960;5.582;2023-01-30T10:28:02;12.20;58.00
71237;DHT22;58984;51.960;5.582;2023-01-30T10:30:29;12.20;57.90
71237;DHT22;58984;51.960;5.582;2023-01-30T10:33:03;12.20;57.90
71237;DHT22;58984;51.960;5.582;2023-01-30T10:35:33;12.20;58.00
71237;DHT22;58984;51.960;5.582;2023-01-30T10:38:20;12.20;57.90
71237;DHT22;58984;51.960;5.582;2023-01-30T10:50:01;12.20;57.90
71237;DHT22;58984;51.960;5.582;2023-01-30T10:55:26;12.30;57.90
71237;DHT22;58984;51.960;5.582;2023-01-30T10:58:04;12.30;57.90
71237;DHT22;58984;51.960;5.582;2023-01-30T11:00:41;12.30;57.90
71237;DHT22;58984;51.960;5.582;2023-01-30T11:06:14;12.30;58.00
71237;DHT22;58984;51.960;5.582;2023-01-30T11:08:41;12.40;57.90
71237;DHT22;58984;51.960;5.582;2023-01-30T11:11:26;12.40;58.00
71237;DHT22;58984;51.960;5.582;2023-01-30T11:14:05;12.40;58.00
71237;DHT22;58984;51.960;5.582;2023-01-30T11:16:39;12.40;58.00
71237;DHT22;58984;51.960;5.582;2023-01-30T11:19:07;12.50;58.10
71237;DHT22;58984;51.960;5.582;2023-01-30T11:21:33;12.40;58.00
71237;DHT22;58984;51.960;5.582;2023-01-30T11:24:04;12.40;57.90
71237;DHT22;58984;51.960;5.582;2023-01-30T11:26:35;12.40;57.90
71237;DHT22;58984;51.960;5.582;2023-01-30T11:29:36;12.50;58.00
71237;DHT22;58984;51.960;5.582;2023-01-30T11:32:14;12.50;58.10
71237;DHT22;58984;51.960;5.582;2023-01-30T11:34:43;12.60;58.10
71237;DHT22;58984;51.960;5.582;2023-01-30T11:37:31;12.60;58.10
71237;DHT22;58984;51.960;5.582;2023-01-30T11:39:57;12.60;58.00
71237;DHT22;58984;51.960;5.582;2023-01-30T11:42:31;12.70;58.10
71237;DHT22;58984;51.960;5.582;2023-01-30T11:44:58;12.70;58.10
71237;DHT22;58984;51.960;5.582;2023-01-30T11:47:26;12.70;58.10
71237;DHT22;58984;51.960;5.582;2023-01-30T11:49:54;12.80;58.10
71237;DHT22;58984;51.960;5.582;2023-01-30T11:52:29;12.80;58.10
71237;DHT22;58984;51.960;5.582;2023-01-30T11:55:05;12.80;58.00
71237;DHT22;58984;51.960;5.582;2023-01-30T11:57:42;12.90;58.00
71237;DHT22;58984;51.960;5.582;2023-01-30T12:00:41;13.00;58.00
71237;DHT22;58984;51.960;5.582;2023-01-30T12:03:17;13.00;58.00
71237;DHT22;58984;51.960;5.582;2023-01-30T12:05:45;13.00;57.90
71237;DHT22;58984;51.960;5.582;2023-01-30T12:10:47;13.10;58.60
71237;DHT22;58984;51.960;5.582;2023-01-30T12:13:38;13.10;57.90
71237;DHT22;58984;51.960;5.582;2023-01-30T12:16:33;13.10;58.00
71237;DHT22;58984;51.960;5.582;2023-01-30T12:22:40;13.20;58.00
71237;DHT22;58984;51.960;5.582;2023-01-30T12:25:21;13.30;58.00
71237;DHT22;58984;51.960;5.582;2023-01-30T12:30:43;13.40;57.80
71237;DHT22;58984;51.960;5.582;2023-01-30T12:33:13;13.40;57.70
71237;DHT22;58984;51.960;5.582;2023-01-30T12:44:19;13.60;57.70
71237;DHT22;58984;51.960;5.582;2023-01-30T12:55:32;13.60;57.70
71237;DHT22;58984;51.960;5.582;2023-01-30T12:58:23;13.60;57.70
71237;DHT22;58984;51.960;5.582;2023-01-30T13:01:01;13.60;57.60
71237;DHT22;58984;51.960;5.582;2023-01-30T13:12:22;13.60;57.70
71237;DHT22;58984;51.960;5.582;2023-01-30T13:15:01;13.70;57.70
71237;DHT22;58984;51.960;5.582;2023-01-30T13:17:40;13.60;57.50
71237;DHT22;58984;51.960;5.582;2023-01-30T13:20:32;13.60;57.60
71237;DHT22;58984;51.960;5.582;2023-01-30T13:23:05;13.60;57.60
71237;DHT22;58984;51.960;5.582;2023-01-30T13:28:22;13.60;57.70
71237;DHT22;58984;51.960;5.582;2023-01-30T13:30:51;13.60;57.70
71237;DHT22;58984;51.960;5.582;2023-01-30T13:33:27;13.60;57.80
71237;DHT22;58984;51.960;5.582;2023-01-30T13:36:23;13.60;57.80
71237;DHT22;58984;51.960;5.582;2023-01-30T13:38:59;13.50;57.70
71237;DHT22;58984;51.960;5.582;2023-01-30T13:41:30;13.60;57.90
71237;DHT22;58984;51.960;5.582;2023-01-30T13:43:57;13.60;57.80
71237;DHT22;58984;51.960;5.582;2023-01-30T13:46:26;13.70;57.90
71237;DHT22;58984;51.960;5.582;2023-01-30T13:49:20;13.60;57.70
71237;DHT22;58984;51.960;5.582;2023-01-30T13:51:46;13.60;57.80
71237;DHT22;58984;51.960;5.582;2023-01-30T13:54:35;13.50;57.70
71237;DHT22;58984;51.960;5.582;2023-01-30T13:57:23;13.60;57.80
71237;DHT22;58984;51.960;5.582;2023-01-30T14:02:35;13.60;57.90
71237;DHT22;58984;51.960;5.582;2023-01-30T14:05:01;13.50;57.70
71237;DHT22;58984;51.960;5.582;2023-01-30T14:12:51;13.50;57.90
71237;DHT22;58984;51.960;5.582;2023-01-30T14:15:22;13.50;58.00
71237;DHT22;58984;51.960;5.582;2023-01-30T14:20:26;13.50;58.00
71237;DHT22;58984;51.960;5.582;2023-01-30T14:22:57;13.50;58.00
71237;DHT22;58984;51.960;5.582;2023-01-30T14:32:56;13.50;58.00
71237;DHT22;58984;51.960;5.582;2023-01-30T14:35:31;13.50;58.00
71237;DHT22;58984;51.960;5.582;2023-01-30T14:38:17;13.40;58.00
71237;DHT22;58984;51.960;5.582;2023-01-30T14:45:54;13.50;58.10
71237;DHT22;58984;51.960;5.582;2023-01-30T14:59:21;13.50;58.10
71237;DHT22;58984;51.960;5.582;2023-01-30T15:04:18;13.50;58.10
71237;DHT22;58984;51.960;5.582;2023-01-30T15:06:46;13.50;58.10
71237;DHT22;58984;51.960;5.582;2023-01-30T15:09:20;13.50;58.10
71237;DHT22;58984;51.960;5.582;2023-01-30T15:12:13;13.40;58.10
71237;DHT22;58984;51.960;5.582;2023-01-30T15:17:31;13.40;58.10
71237;DHT22;58984;51.960;5.582;2023-01-30T15:20:07;13.50;58.20
71237;DHT22;58984;51.960;5.582;2023-01-30T15:30:50;13.40;58.10
71237;DHT22;58984;51.960;5.582;2023-01-30T15:33:22;13.40;58.10
71237;DHT22;58984;51.960;5.582;2023-01-30T15:35:48;13.40;58.10
71237;DHT22;58984;51.960;5.582;2023-01-30T15:40:59;13.40;58.10
71237;DHT22;58984;51.960;5.582;2023-01-30T15:46:31;13.40;58.10
71237;DHT22;58984;51.960;5.582;2023-01-30T15:52:00;13.40;58.20
71237;DHT22;58984;51.960;5.582;2023-01-30T15:54:26;13.30;58.10
71237;DHT22;58984;51.960;5.582;2023-01-30T15:56:53;13.50;58.30
71237;DHT22;58984;51.960;5.582;2023-01-30T15:59:37;13.40;58.10
71237;DHT22;58984;51.960;5.582;2023-01-30T16:02:14;13.30;58.70
71237;DHT22;58984;51.960;5.582;2023-01-30T16:04:40;13.30;58.00
71237;DHT22;58984;51.960;5.582;2023-01-30T16:07:35;13.40;58.10
71237;DHT22;58984;51.960;5.582;2023-01-30T16:10:01;13.30;58.20
71237;DHT22;58984;51.960;5.582;2023-01-30T16:12:29;13.40;58.10
71237;DHT22;58984;51.960;5.582;2023-01-30T16:14:57;13.40;58.10
71237;DHT22;58984;51.960;5.582;2023-01-30T16:17:29;13.40;58.10
71237;DHT22;58984;51.960;5.582;2023-01-30T16:19:55;13.30;58.10
71237;DHT22;58984;51.960;5.582;2023-01-30T16:22:21;13.50;58.30
71237;DHT22;58984;51.960;5.582;2023-01-30T16:24:51;13.50;58.00
71237;DHT22;58984;51.960;5.582;2023-01-30T16:27:32;13.40;58.10
71237;DHT22;58984;51.960;5.582;2023-01-30T16:30:02;13.40;58.10
71237;DHT22;58984;51.960;5.582;2023-01-30T16:32:30;13.40;58.10
71237;DHT22;58984;51.960;5.582;2023-01-30T16:37:51;13.30;58.20
71237;DHT22;58984;51.960;5.582;2023-01-30T16:40:26;13.40;58.10
71237;DHT22;58984;51.960;5.582;2023-01-30T16:42:58;13.30;58.10
71237;DHT22;58984;51.960;5.582;2023-01-30T16:47:53;13.30;58.00
71237;DHT22;58984;51.960;5.582;2023-01-30T16:50:20;13.30;58.00
71237;DHT22;58984;51.960;5.582;2023-01-30T16:52:50;13.30;58.10
71237;DHT22;58984;51.960;5.582;2023-01-30T16:55:21;13.30;58.10
71237;DHT22;58984;51.960;5.582;2023-01-30T16:57:57;13.30;58.00
71237;DHT22;58984;51.960;5.582;2023-01-30T17:00:35;13.30;58.00
71237;DHT22;58984;51.960;5.582;2023-01-30T17:03:05;13.30;58.00
71237;DHT22;58984;51.960;5.582;2023-01-30T17:05:44;13.30;58.00
71237;DHT22;58984;51.960;5.582;2023-01-30T17:11:04;13.20;57.90
71237;DHT22;58984;51.960;5.582;2023-01-30T17:14:38;13.30;57.90
71237;DHT22;58984;51.960;5.582;2023-01-30T17:16:46;13.20;57.90
71237;DHT22;58984;51.960;5.582;2023-01-30T17:19:13;13.30;57.80
71237;DHT22;58984;51.960;5.582;2023-01-30T17:21:48;13.30;57.90
71237;DHT22;58984;51.960;5.582;2023-01-30T17:24:16;13.20;57.80
71237;DHT22;58984;51.960;5.582;2023-01-30T17:26:43;13.20;57.70
71237;DHT22;58984;51.960;5.582;2023-01-30T17:29:13;13.20;57.70
71237;DHT22;58984;51.960;5.582;2023-01-30T17:31:45;13.20;57.60
71237;DHT22;58984;51.960;5.582;2023-01-30T17:34:11;13.20;57.50
71237;DHT22;58984;51.960;5.582;2023-01-30T17:36:37;13.20;57.50
71237;DHT22;58984;51.960;5.582;2023-01-30T17:39:09;13.20;57.50
71237;DHT22;58984;51.960;5.582;2023-01-30T17:41:36;13.10;57.30
71237;DHT22;58984;51.960;5.582;2023-01-30T17:44:02;13.10;57.30
71237;DHT22;58984;51.960;5.582;2023-01-30T17:46:35;13.10;57.30
71237;DHT22;58984;51.960;5.582;2023-01-30T17:49:01;13.10;57.30
71237;DHT22;58984;51.960;5.582;2023-01-30T17:51:26;13.10;57.20
71237;DHT22;58984;51.960;5.582;2023-01-30T17:53:52;13.10;57.20
71237;DHT22;58984;51.960;5.582;2023-01-30T17:56:25;13.10;57.20
71237;DHT22;58984;51.960;5.582;2023-01-30T17:58:51;13.00;57.00
71237;DHT22;58984;51.960;5.582;2023-01-30T18:01:17;13.10;57.00
71237;DHT22;58984;51.960;5.582;2023-01-30T18:03:44;13.10;57.00
71237;DHT22;58984;51.960;5.582;2023-01-30T18:06:14;13.00;56.90
71237;DHT22;58984;51.960;5.582;2023-01-30T18:08:40;13.00;56.80
71237;DHT22;58984;51.960;5.582;2023-01-30T18:11:06;13.00;56.80
71237;DHT22;58984;51.960;5.582;2023-01-30T18:13:36;13.00;56.80
71237;DHT22;58984;51.960;5.582;2023-01-30T18:16:03;13.00;56.80
71237;DHT22;58984;51.960;5.582;2023-01-30T18:18:28;13.00;56.80
71237;DHT22;58984;51.960;5.582;2023-01-30T18:20:54;13.00;56.90
71237;DHT22;58984;51.960;5.582;2023-01-30T18:23:20;13.00;56.80
71237;DHT22;58984;51.960;5.582;2023-01-30T18:25:45;13.00;56.80
71237;DHT22;58984;51.960;5.582;2023-01-30T18:28:11;13.00;56.80
71237;DHT22;58984;51.960;5.582;2023-01-30T18:30:36;12.90;56.80
71237;DHT22;58984;51.960;5.582;2023-01-30T18:33:02;12.90;56.80
71237;DHT22;58984;51.960;5.582;2023-01-30T18:35:28;12.90;56.80
71237;DHT22;58984;51.960;5.582;2023-01-30T18:37:53;12.90;56.80
71237;DHT22;58984;51.960;5.582;2023-01-30T18:40:19;12.90;56.80